Commodore Goodwill — C6NU8 — position and weather

sailwx.info

Track history (hours):
 
Tides and Currents Weather Stations Pressure Air Temp Water Temp Dewpoint Dewpoint Depression Visibility Wind Speed Wind Dir Waves Ship Positions

Commodore Goodwill

Operator: Condor Marine Services

Last reported at 2018-May-22 23:17 UTC. Time now 2018-May-23 05:24 UTC.
Position N 49°47' W 001°60'.

Length 126 m; draft 5.2 m.

Type: Ship (hazmat cat C). MMSI: 309536000.

Date/timePositionNaut miles runAvg speedWind from/ knotsBaromVisibWave heightAir tempDewpointWater temp
2018-May-22 23:17N 49°47' W 001°60'413.0
2018-May-22 23:00N 49°50' W 001°57'714.8
2018-May-22 22:30N 49°56' W 001°50'918.1
2018-May-22 22:00N 50°04' W 001°43'918.5
2018-May-22 21:30N 50°12' W 001°35'2819.0
2018-May-22 20:02N 50°35' W 001°10'120.1
2018-May-22 20:00N 50°35' W 001°09'917.5
2018-May-22 19:30N 50°43' W 001°04'611.6
2018-May-22 19:00N 50°49' W 001°06'0 0.4
2018-May-22 18:30N 50°49' W 001°06'0 0.0
2018-May-22 18:00N 50°49' W 001°06'0 0.0
2018-May-22 17:30N 50°49' W 001°06'0 0.0
2018-May-22 17:00N 50°49' W 001°06'0 0.0
2018-May-22 16:30N 50°49' W 001°06'2 4.2
2018-May-22 16:00N 50°47' W 001°06'715.0
2018-May-22 15:30N 50°39' W 001°05'2518.9
2018-May-22 14:11N 50°18' W 001°26'319.2
2018-May-22 14:00N 50°15' W 001°29'1019.5
2018-May-22 13:28N 50°07' W 001°39'919.0
2018-May-22 13:01N 49°59' W 001°45'1019.9
2018-May-22 12:31N 49°51' W 001°54'4019.8
2018-May-22 10:30N 49°15' W 002°21'10 3.8
2018-May-22 07:43N 49°11' W 002°07'1 4.1
2018-May-22 07:27N 49°10' W 002°07'0 0.8
2018-May-22 07:00N 49°10' W 002°08'713.1
2018-May-22 06:27N 49°10' W 002°19'9 7.4
2018-May-22 05:19N 49°12' W 002°32'8 6.1
2018-May-22 04:03N 49°20' W 002°29'0 7.1
2018-May-22 04:00N 49°20' W 002°29'4 7.3
2018-May-22 03:28N 49°24' W 002°29'4 7.9
2018-May-22 03:00N 49°27' W 002°32'0 0.0
2018-May-22 02:30N 49°27' W 002°32'0 0.0
2018-May-22 02:00N 49°27' W 002°32'4 7.8
2018-May-22 01:30N 49°26' W 002°26'814.9
2018-May-22 01:00N 49°31' W 002°17'1913.7
2018-May-21 23:35N 49°47' W 002°00'113.3
2018-May-21 23:30N 49°48' W 001°59'713.5
2018-May-21 23:00N 49°53' W 001°53'816.1
2018-May-21 22:30N 49°60' W 001°46'715.1
2018-May-21 22:00N 50°06' W 001°39'715.0
2018-May-21 21:30N 50°12' W 001°32'815.3
2018-May-21 21:00N 50°18' W 001°26'1515.7
2018-May-21 20:03N 50°31' W 001°14'116.3
2018-May-21 19:59N 50°32' W 001°13'816.5
2018-May-21 19:30N 50°38' W 001°06'713.6
2018-May-21 19:00N 50°45' W 001°05'4 7.1
2018-May-21 18:31N 50°49' W 001°06'0 0.0
2018-May-21 18:01N 50°49' W 001°06'0 0.0
2018-May-21 17:31N 50°49' W 001°06'0 0.0
2018-May-21 17:00N 50°49' W 001°06'0 0.0
2018-May-21 16:31N 50°49' W 001°06'0 0.9
2018-May-21 16:01N 50°49' W 001°06'4 8.5
2018-May-21 15:30N 50°45' W 001°05'714.3
2018-May-21 15:00N 50°37' W 001°07'2618.6
2018-May-21 13:38N 50°16' W 001°29'218.9
2018-May-21 13:30N 50°14' W 001°31'919.2
2018-May-21 13:00N 50°06' W 001°39'918.7
2018-May-21 12:30N 49°58' W 001°45'918.5
2018-May-21 12:00N 49°51' W 001°55'4020.3
2018-May-21 10:04N 49°15' W 002°21'10 3.4
2018-May-21 07:01N 49°11' W 002°07'0 2.0
2018-May-21 07:00N 49°11' W 002°07'710.3
2018-May-21 06:21N 49°10' W 002°17'12 6.6
2018-May-21 04:27N 49°21' W 002°27'3 6.0
2018-May-21 04:00N 49°23' W 002°28'4 7.5
2018-May-21 03:31N 49°27' W 002°30'1 2.2
2018-May-21 02:59N 49°27' W 002°32'0 0.0
2018-May-21 02:23N 49°27' W 002°32'0 0.0
2018-May-21 01:59N 49°27' W 002°32'4 8.1
2018-May-21 01:30N 49°26' W 002°26'815.2
2018-May-21 01:00N 49°31' W 002°17'1114.1
2018-May-21 00:13N 49°39' W 002°06'312.1
2018-May-21 00:00N 49°42' W 002°04'610.7
2018-May-20 23:27N 49°47' W 001°60'510.3
2018-May-20 23:00N 49°50' W 001°55'611.1
2018-May-20 22:30N 49°54' W 001°49'611.9
2018-May-20 22:00N 49°58' W 001°43'713.0
2018-May-20 21:30N 50°04' W 001°39'713.6
2018-May-20 21:00N 50°11' W 001°35'714.0
2018-May-20 20:30N 50°17' W 001°29'714.5
2018-May-20 20:00N 50°23' W 001°23'714.9
2018-May-20 19:30N 50°29' W 001°16'815.6
2018-May-20 19:00N 50°35' W 001°09'815.2
2018-May-20 18:30N 50°42' W 001°03'714.0
2018-May-20 18:01N 50°48' W 001°07'1 1.8
2018-May-20 17:30N 50°49' W 001°06'0 0.0
2018-May-20 17:00N 50°49' W 001°06'0 0.0
2018-May-20 16:30N 50°49' W 001°06'0 0.0
2018-May-20 16:00N 50°49' W 001°06'0 0.0
2018-May-20 15:30N 50°49' W 001°06'0 0.0
2018-May-20 15:00N 50°49' W 001°06'0 0.0
2018-May-20 14:30N 50°49' W 001°06'0 0.0
2018-May-20 14:00N 50°49' W 001°06'0 0.0
2018-May-20 13:30N 50°49' W 001°06'0 0.0
2018-May-20 13:00N 50°49' W 001°06'0 0.0
2018-May-20 12:30N 50°49' W 001°06'0 0.0
2018-May-20 12:00N 50°49' W 001°06'0 0.0
2018-May-20 11:30N 50°49' W 001°06'0 0.0
2018-May-20 11:00N 50°49' W 001°06'0 0.0
2018-May-20 10:30N 50°49' W 001°06'0 0.0
2018-May-20 10:00N 50°49' W 001°06'0 0.0
2018-May-20 09:30N 50°49' W 001°06'0 0.0
2018-May-20 09:00N 50°49' W 001°06'0 0.0
2018-May-20 08:30N 50°49' W 001°06'0 0.0
2018-May-20 08:00N 50°49' W 001°06'0 0.0
2018-May-20 07:30N 50°49' W 001°06'0 0.0
2018-May-20 07:00N 50°49' W 001°06'0 0.0
2018-May-20 06:30N 50°49' W 001°06'2 4.2
2018-May-20 06:00N 50°47' W 001°06'713.0
2018-May-20 05:30N 50°40' W 001°04'4114.8
2018-May-20 02:42N 50°06' W 001°40'516.9
2018-May-20 02:24N 50°01' W 001°44'717.4
2018-May-20 02:00N 49°56' W 001°51'817.0
2018-May-20 01:31N 49°49' W 001°59'917.4
2018-May-20 01:00N 49°41' W 002°05'2317.6
2018-May-19 23:43N 49°20' W 002°18'616.3
2018-May-19 23:22N 49°15' W 002°21'715.4
2018-May-19 22:57N 49°10' W 002°15'6 2.8
2018-May-19 20:59N 49°11' W 002°07'3 5.6
2018-May-19 20:23N 49°07' W 002°06'4 2.4
2018-May-19 18:34N 49°06' W 002°13'312.3
2018-May-19 18:21N 49°03' W 002°14'6 3.2
2018-May-19 16:28N 49°00' W 002°22'22 9.6
2018-May-19 14:09N 48°40' W 002°05'2 0.6
2018-May-19 11:12N 48°39' W 002°03'3114.6
2018-May-19 09:06N 49°10' W 002°07'1 0.3
2018-May-19 07:14N 49°10' W 002°07'616.8
2018-May-19 06:54N 49°10' W 002°16'1518.4
2018-May-19 06:06N 49°23' W 002°27'218.4
2018-May-19 06:00N 49°24' W 002°28'4 5.3
2018-May-19 05:18N 49°27' W 002°32'0 0.0
2018-May-19 05:00N 49°27' W 002°32'0 0.0
2018-May-19 04:29N 49°27' W 002°32'1 1.9
2018-May-19 04:00N 49°28' W 002°30'3 6.3
2018-May-19 03:30N 49°26' W 002°26'28 9.5
2018-May-19 00:35N 49°48' W 001°59'111.0
2018-May-19 00:30N 49°49' W 001°59'611.1
2018-May-19 00:00N 49°54' W 001°54'510.4
2018-May-18 23:31N 49°58' W 001°49'510.5
2018-May-18 23:01N 50°02' W 001°44'612.4
2018-May-18 22:30N 50°06' W 001°37'612.9
2018-May-18 22:01N 50°11' W 001°31'612.8
2018-May-18 21:30N 50°16' W 001°25'2613.6
2018-May-18 19:34N 50°38' W 001°01'216.1
2018-May-18 19:28N 50°39' W 000°60'613.3
2018-May-18 19:00N 50°44' W 001°05'4 8.7
2018-May-18 18:31N 50°49' W 001°06'0 0.2
2018-May-18 18:00N 50°49' W 001°06'0 0.0
2018-May-18 17:30N 50°49' W 001°06'0 0.0
2018-May-18 17:00N 50°49' W 001°06'0 0.0
2018-May-18 16:30N 50°49' W 001°06'0 0.0
2018-May-18 16:00N 50°49' W 001°06'2 3.0
2018-May-18 15:31N 50°47' W 001°07'714.0
2018-May-18 15:00N 50°41' W 001°03'815.2
2018-May-18 14:30N 50°34' W 001°10'3616.9
2018-May-18 12:21N 50°04' W 001°41'718.6
2018-May-18 11:58N 49°58' W 001°47'919.1
2018-May-18 11:30N 49°50' W 001°55'2820.0
2018-May-18 10:07N 49°25' W 002°13'320.0
2018-May-18 09:59N 49°23' W 002°16'1019.1
2018-May-18 09:27N 49°13' W 002°20'817.1
2018-May-18 09:00N 49°10' W 002°09'2 0.7
2018-May-18 06:56N 49°11' W 002°07'612.4
2018-May-18 06:29N 49°10' W 002°15'918.1
2018-May-18 06:00N 49°17' W 002°23'918.2
2018-May-18 05:30N 49°25' W 002°29'3 5.6
2018-May-18 05:00N 49°27' W 002°32'0 0.0
2018-May-18 04:30N 49°27' W 002°32'0 0.0
2018-May-18 03:54N 49°27' W 002°32'2 6.0
2018-May-18 03:31N 49°26' W 002°29'815.3
2018-May-18 03:00N 49°30' W 002°19'714.1
2018-May-18 02:30N 49°34' W 002°10'612.6
2018-May-18 01:59N 49°39' W 002°05'713.8
2018-May-18 01:27N 49°47' W 002°03'613.3
2018-May-18 01:00N 49°51' W 001°57'713.5
2018-May-18 00:30N 49°57' W 001°51'713.2
2018-May-18 00:00N 50°02' W 001°45'612.5
2018-May-17 23:30N 50°07' W 001°38'712.2
2018-May-17 22:55N 50°12' W 001°31'3012.7
2018-May-17 20:34N 50°36' W 001°04'212.6
2018-May-17 20:24N 50°38' W 001°02'512.0
2018-May-17 20:00N 50°43' W 001°01'612.0
2018-May-17 19:30N 50°48' W 001°07'1 2.2
2018-May-17 19:00N 50°49' W 001°06'0 0.0
2018-May-17 18:30N 50°49' W 001°06'0 0.0
2018-May-17 18:00N 50°49' W 001°06'0 0.0
2018-May-17 17:30N 50°49' W 001°06'0 0.0
2018-May-17 17:00N 50°49' W 001°06'0 0.0
2018-May-17 16:30N 50°49' W 001°06'0 0.0
2018-May-17 16:00N 50°49' W 001°06'2 3.7
2018-May-17 15:30N 50°47' W 001°06'713.6
2018-May-17 15:00N 50°40' W 001°04'814.8
2018-May-17 14:29N 50°34' W 001°10'3316.0
2018-May-17 12:24N 50°06' W 001°39'717.5
2018-May-17 12:00N 50°00' W 001°45'917.9
2018-May-17 11:31N 49°53' W 001°53'1418.6
2018-May-17 10:47N 49°42' W 002°04'2619.3
2018-May-17 09:25N 49°17' W 002°20'916.0
2018-May-17 08:52N 49°10' W 002°13'4 1.3
2018-May-17 05:51N 49°10' W 002°07'718.8
2018-May-17 05:29N 49°10' W 002°18'1118.9
2018-May-17 04:53N 49°21' W 002°26'717.9
2018-May-17 04:30N 49°27' W 002°30'1 2.5
2018-May-17 04:00N 49°27' W 002°32'0 0.0
2018-May-17 03:30N 49°27' W 002°32'0 0.0
2018-May-17 03:00N 49°27' W 002°32'2 4.8
2018-May-17 02:30N 49°26' W 002°29'714.6
2018-May-17 02:00N 49°29' W 002°19'1418.2
2018-May-17 01:16N 49°40' W 002°07'414.7
2018-May-17 01:00N 49°44' W 002°05'714.9
2018-May-17 00:30N 49°49' W 001°57'714.0
2018-May-17 00:00N 49°54' W 001°49'613.0
2018-May-16 23:30N 49°58' W 001°42'713.4
2018-May-16 23:00N 50°05' W 001°38'612.9
2018-May-16 22:31N 50°10' W 001°35'3612.1
2018-May-16 19:32N 50°39' W 001°01'014.1
2018-May-16 19:30N 50°40' W 001°01'714.9
2018-May-16 19:00N 50°46' W 001°06'2 4.6
2018-May-16 18:30N 50°49' W 001°06'0 0.0
2018-May-16 18:00N 50°49' W 001°06'0 0.0
2018-May-16 17:30N 50°49' W 001°06'0 0.0
2018-May-16 17:00N 50°49' W 001°06'0 0.0
2018-May-16 16:30N 50°49' W 001°06'0 0.0
2018-May-16 16:00N 50°49' W 001°06'0 0.0
2018-May-16 15:30N 50°49' W 001°06'2 3.6
2018-May-16 15:00N 50°47' W 001°06'713.2
2018-May-16 14:31N 50°41' W 001°03'3114.5
2018-May-16 12:22N 50°14' W 001°27'614.9
2018-May-16 12:00N 50°09' W 001°33'815.5
2018-May-16 11:30N 50°04' W 001°41'816.1
2018-May-16 11:00N 49°57' W 001°48'815.4
2018-May-16 10:30N 49°51' W 001°55'2815.9
2018-May-16 08:45N 49°26' W 002°14'616.5
2018-May-16 08:24N 49°21' W 002°19'14 3.7
2018-May-16 04:45N 49°10' W 002°08'619.5
2018-May-16 04:27N 49°10' W 002°17'1018.9
2018-May-16 03:54N 49°19' W 002°26'818.3
2018-May-16 03:30N 49°26' W 002°29'2 4.6
2018-May-16 03:00N 49°27' W 002°32'0 0.0
2018-May-16 02:28N 49°27' W 002°32'0 0.3
2018-May-16 02:00N 49°27' W 002°32'4 7.2
2018-May-16 01:30N 49°26' W 002°26'917.3
2018-May-16 01:00N 49°31' W 002°16'1618.2
2018-May-16 00:06N 49°46' W 002°03'218.0
2018-May-15 23:58N 49°47' W 002°01'816.9
2018-May-15 23:30N 49°54' W 001°54'815.7
2018-May-15 23:00N 49°60' W 001°46'714.3
2018-May-15 22:30N 50°06' W 001°40'713.8
2018-May-15 22:00N 50°11' W 001°33'714.2
2018-May-15 21:30N 50°17' W 001°27'2615.1
2018-May-15 19:45N 50°38' W 001°02'415.0
2018-May-15 19:30N 50°42' W 001°01'612.6
2018-May-15 19:00N 50°47' W 001°06'2 3.4
2018-May-15 18:30N 50°49' W 001°06'0 0.0
2018-May-15 18:00N 50°49' W 001°06'0 0.0
2018-May-15 17:30N 50°49' W 001°06'0 0.0
2018-May-15 17:01N 50°49' W 001°06'0 0.0
2018-May-15 16:30N 50°49' W 001°06'0 0.0
2018-May-15 16:00N 50°49' W 001°06'0 0.0
2018-May-15 15:30N 50°49' W 001°06'2 4.0
2018-May-15 15:00N 50°47' W 001°06'612.8
2018-May-15 14:30N 50°41' W 001°03'713.5
2018-May-15 14:01N 50°35' W 001°09'1513.8
2018-May-15 12:55N 50°23' W 001°22'914.5
2018-May-15 12:19N 50°16' W 001°32'515.5
2018-May-15 12:00N 50°12' W 001°36'816.6
2018-May-15 11:30N 50°05' W 001°43'917.0
2018-May-15 10:59N 49°58' W 001°50'815.6
2018-May-15 10:30N 49°51' W 001°56'714.5
2018-May-15 10:00N 49°45' W 002°02'714.5
2018-May-15 09:30N 49°38' W 002°07'815.2
2018-May-15 09:00N 49°31' W 002°11'916.4
2018-May-15 08:25N 49°22' W 002°17'716.2
2018-May-15 08:00N 49°16' W 002°21'1116.2
2018-May-15 07:21N 49°10' W 002°08'1 0.4
2018-May-15 04:55N 49°11' W 002°07'614.0
2018-May-15 04:30N 49°10' W 002°16'812.9
2018-May-15 03:50N 49°16' W 002°24'615.2
2018-May-15 03:27N 49°22' W 002°27'613.5
2018-May-15 03:00N 49°27' W 002°32'0 0.0
2018-May-15 02:31N 49°27' W 002°32'0 0.0
2018-May-15 02:00N 49°27' W 002°32'4 7.8
2018-May-15 01:29N 49°26' W 002°26'915.7
2018-May-15 00:54N 49°32' W 002°14'1517.5
2018-May-15 00:03N 49°45' W 002°04'318.7
2018-May-14 23:53N 49°48' W 002°02'717.6
2018-May-14 23:30N 49°53' W 001°56'816.0
2018-May-14 23:00N 49°60' W 001°48'714.7
2018-May-14 22:30N 50°05' W 001°41'713.9
2018-May-14 22:00N 50°11' W 001°34'713.3
2018-May-14 21:30N 50°16' W 001°28'613.0
2018-May-14 21:01N 50°21' W 001°22'714.0
2018-May-14 20:29N 50°28' W 001°17'714.5
2018-May-14 20:00N 50°34' W 001°11'714.9
2018-May-14 19:30N 50°40' W 001°04'714.1
2018-May-14 19:00N 50°47' W 001°06'2 4.0
2018-May-14 18:30N 50°49' W 001°07'1 1.3
2018-May-14 18:00N 50°49' W 001°06'0 0.0
2018-May-14 17:30N 50°49' W 001°06'0 0.0
2018-May-14 17:00N 50°49' W 001°06'0 0.0
2018-May-14 16:30N 50°49' W 001°06'0 0.0
2018-May-14 16:00N 50°49' W 001°06'0 0.0
2018-May-14 15:30N 50°49' W 001°06'2 3.4
2018-May-14 15:00N 50°47' W 001°06'713.5
2018-May-14 14:31N 50°41' W 001°01'714.3
2018-May-14 14:00N 50°35' W 001°06'2513.9
2018-May-14 12:13N 50°15' W 001°28'314.3
2018-May-14 12:00N 50°12' W 001°31'714.2
2018-May-14 11:31N 50°07' W 001°38'714.6
2018-May-14 11:00N 50°01' W 001°45'714.6
2018-May-14 10:31N 49°55' W 001°52'714.8
2018-May-14 10:00N 49°49' W 001°58'2916.4
2018-May-14 08:16N 49°23' W 002°16'1316.5
2018-May-14 07:30N 49°10' W 002°18'7 2.8
2018-May-14 04:59N 49°11' W 002°07'714.0
2018-May-14 04:29N 49°10' W 002°18'1317.9
2018-May-14 03:45N 49°22' W 002°27'417.5
2018-May-14 03:30N 49°26' W 002°30'2 4.3
2018-May-14 03:00N 49°27' W 002°32'0 0.0
2018-May-14 02:30N 49°27' W 002°32'0 0.0
2018-May-14 01:59N 49°27' W 002°32'4 8.4
2018-May-14 01:30N 49°26' W 002°26'714.1
2018-May-14 01:00N 49°30' W 002°17'611.4
2018-May-14 00:29N 49°34' W 002°10'611.2
2018-May-13 23:59N 49°39' W 002°06'914.1
2018-May-13 23:23N 49°47' W 002°01'6513.4
2018-May-13 18:33N 50°40' W 001°04'113.4
2018-May-13 18:30N 50°41' W 001°03'612.3
2018-May-13 18:00N 50°47' W 001°06'2 3.9
2018-May-13 17:30N 50°49' W 001°06'0 0.0
2018-May-13 17:00N 50°49' W 001°06'0 0.0
2018-May-13 16:30N 50°49' W 001°06'0 0.0
2018-May-13 16:00N 50°49' W 001°06'0 0.0
2018-May-13 15:30N 50°49' W 001°06'0 0.0
2018-May-13 15:00N 50°49' W 001°06'0 0.0
2018-May-13 14:30N 50°49' W 001°06'0 0.0
2018-May-13 14:00N 50°49' W 001°06'0 0.0
2018-May-13 13:30N 50°49' W 001°06'0 0.0
2018-May-13 13:00N 50°49' W 001°06'0 0.0
2018-May-13 12:30N 50°49' W 001°06'0 0.0
2018-May-13 12:00N 50°49' W 001°06'0 0.0
2018-May-13 11:30N 50°49' W 001°06'0 0.0
2018-May-13 11:00N 50°49' W 001°06'0 0.0
2018-May-13 10:30N 50°49' W 001°06'0 0.0
2018-May-13 10:00N 50°49' W 001°06'0 0.0
2018-May-13 09:30N 50°49' W 001°06'0 0.0
2018-May-13 09:00N 50°49' W 001°06'0 0.0
2018-May-13 08:30N 50°49' W 001°06'0 0.0
2018-May-13 08:00N 50°49' W 001°06'0 0.0
2018-May-13 07:30N 50°49' W 001°06'0 0.0
2018-May-13 07:00N 50°49' W 001°06'2 4.0
2018-May-13 06:30N 50°47' W 001°06'713.7
2018-May-13 06:00N 50°40' W 001°04'713.0
2018-May-13 05:30N 50°34' W 001°08'7014.9
2018-May-13 00:48N 49°35' W 002°08'616.2
2018-May-13 00:24N 49°31' W 002°15'616.4
2018-May-13 00:00N 49°27' W 002°24'510.3
2018-May-12 23:30N 49°27' W 002°32'  
Track history (hours):
 
Tides and Currents Weather Stations Pressure Air Temp Water Temp Dewpoint Dewpoint Depression Visibility Wind Speed Wind Dir Waves Ship Positions

Commodore Goodwill

Operator: Condor Marine Services

Last reported at 2018-May-22 23:17 UTC. Time now 2018-May-23 05:24 UTC.
Position N 49°47' W 001°60'.

Length 126 m; draft 5.2 m.

Type: Ship (hazmat cat C). MMSI: 309536000.

Date/timePositionNaut miles runAvg speedWind from/ knotsBaromVisibWave heightAir tempDewpointWater temp
2018-May-22 23:17N 49°47' W 001°60'413.0
2018-May-22 23:00N 49°50' W 001°57'714.8
2018-May-22 22:30N 49°56' W 001°50'918.1
2018-May-22 22:00N 50°04' W 001°43'918.5
2018-May-22 21:30N 50°12' W 001°35'2819.0
2018-May-22 20:02N 50°35' W 001°10'120.1
2018-May-22 20:00N 50°35' W 001°09'917.5
2018-May-22 19:30N 50°43' W 001°04'611.6
2018-May-22 19:00N 50°49' W 001°06'0 0.4
2018-May-22 18:30N 50°49' W 001°06'0 0.0
2018-May-22 18:00N 50°49' W 001°06'0 0.0
2018-May-22 17:30N 50°49' W 001°06'0 0.0
2018-May-22 17:00N 50°49' W 001°06'0 0.0
2018-May-22 16:30N 50°49' W 001°06'2 4.2
2018-May-22 16:00N 50°47' W 001°06'715.0
2018-May-22 15:30N 50°39' W 001°05'2518.9
2018-May-22 14:11N 50°18' W 001°26'319.2
2018-May-22 14:00N 50°15' W 001°29'1019.5
2018-May-22 13:28N 50°07' W 001°39'919.0
2018-May-22 13:01N 49°59' W 001°45'1019.9
2018-May-22 12:31N 49°51' W 001°54'4019.8
2018-May-22 10:30N 49°15' W 002°21'10 3.8
2018-May-22 07:43N 49°11' W 002°07'1 4.1
2018-May-22 07:27N 49°10' W 002°07'0 0.8
2018-May-22 07:00N 49°10' W 002°08'713.1
2018-May-22 06:27N 49°10' W 002°19'9 7.4
2018-May-22 05:19N 49°12' W 002°32'8 6.1
2018-May-22 04:03N 49°20' W 002°29'0 7.1
2018-May-22 04:00N 49°20' W 002°29'4 7.3
2018-May-22 03:28N 49°24' W 002°29'4 7.9
2018-May-22 03:00N 49°27' W 002°32'0 0.0
2018-May-22 02:30N 49°27' W 002°32'0 0.0
2018-May-22 02:00N 49°27' W 002°32'4 7.8
2018-May-22 01:30N 49°26' W 002°26'814.9
2018-May-22 01:00N 49°31' W 002°17'1913.7
2018-May-21 23:35N 49°47' W 002°00'113.3
2018-May-21 23:30N 49°48' W 001°59'713.5
2018-May-21 23:00N 49°53' W 001°53'816.1
2018-May-21 22:30N 49°60' W 001°46'715.1
2018-May-21 22:00N 50°06' W 001°39'715.0
2018-May-21 21:30N 50°12' W 001°32'815.3
2018-May-21 21:00N 50°18' W 001°26'1515.7
2018-May-21 20:03N 50°31' W 001°14'116.3
2018-May-21 19:59N 50°32' W 001°13'816.5
2018-May-21 19:30N 50°38' W 001°06'713.6
2018-May-21 19:00N 50°45' W 001°05'4 7.1
2018-May-21 18:31N 50°49' W 001°06'0 0.0
2018-May-21 18:01N 50°49' W 001°06'0 0.0
2018-May-21 17:31N 50°49' W 001°06'0 0.0
2018-May-21 17:00N 50°49' W 001°06'0 0.0
2018-May-21 16:31N 50°49' W 001°06'0 0.9
2018-May-21 16:01N 50°49' W 001°06'4 8.5
2018-May-21 15:30N 50°45' W 001°05'714.3
2018-May-21 15:00N 50°37' W 001°07'2618.6
2018-May-21 13:38N 50°16' W 001°29'218.9
2018-May-21 13:30N 50°14' W 001°31'919.2
2018-May-21 13:00N 50°06' W 001°39'918.7
2018-May-21 12:30N 49°58' W 001°45'918.5
2018-May-21 12:00N 49°51' W 001°55'4020.3
2018-May-21 10:04N 49°15' W 002°21'10 3.4
2018-May-21 07:01N 49°11' W 002°07'0 2.0
2018-May-21 07:00N 49°11' W 002°07'710.3
2018-May-21 06:21N 49°10' W 002°17'12 6.6
2018-May-21 04:27N 49°21' W 002°27'3 6.0
2018-May-21 04:00N 49°23' W 002°28'4 7.5
2018-May-21 03:31N 49°27' W 002°30'1 2.2
2018-May-21 02:59N 49°27' W 002°32'0 0.0
2018-May-21 02:23N 49°27' W 002°32'0 0.0
2018-May-21 01:59N 49°27' W 002°32'4 8.1
2018-May-21 01:30N 49°26' W 002°26'815.2
2018-May-21 01:00N 49°31' W 002°17'1114.1
2018-May-21 00:13N 49°39' W 002°06'312.1
2018-May-21 00:00N 49°42' W 002°04'610.7
2018-May-20 23:27N 49°47' W 001°60'510.3
2018-May-20 23:00N 49°50' W 001°55'611.1
2018-May-20 22:30N 49°54' W 001°49'611.9
2018-May-20 22:00N 49°58' W 001°43'713.0
2018-May-20 21:30N 50°04' W 001°39'713.6
2018-May-20 21:00N 50°11' W 001°35'714.0
2018-May-20 20:30N 50°17' W 001°29'714.5
2018-May-20 20:00N 50°23' W 001°23'714.9
2018-May-20 19:30N 50°29' W 001°16'815.6
2018-May-20 19:00N 50°35' W 001°09'815.2
2018-May-20 18:30N 50°42' W 001°03'714.0
2018-May-20 18:01N 50°48' W 001°07'1 1.8
2018-May-20 17:30N 50°49' W 001°06'0 0.0
2018-May-20 17:00N 50°49' W 001°06'0 0.0
2018-May-20 16:30N 50°49' W 001°06'0 0.0
2018-May-20 16:00N 50°49' W 001°06'0 0.0
2018-May-20 15:30N 50°49' W 001°06'0 0.0
2018-May-20 15:00N 50°49' W 001°06'0 0.0
2018-May-20 14:30N 50°49' W 001°06'0 0.0
2018-May-20 14:00N 50°49' W 001°06'0 0.0
2018-May-20 13:30N 50°49' W 001°06'0 0.0
2018-May-20 13:00N 50°49' W 001°06'0 0.0
2018-May-20 12:30N 50°49' W 001°06'0 0.0
2018-May-20 12:00N 50°49' W 001°06'0 0.0
2018-May-20 11:30N 50°49' W 001°06'0 0.0
2018-May-20 11:00N 50°49' W 001°06'0 0.0
2018-May-20 10:30N 50°49' W 001°06'0 0.0
2018-May-20 10:00N 50°49' W 001°06'0 0.0
2018-May-20 09:30N 50°49' W 001°06'0 0.0
2018-May-20 09:00N 50°49' W 001°06'0 0.0
2018-May-20 08:30N 50°49' W 001°06'0 0.0
2018-May-20 08:00N 50°49' W 001°06'0 0.0
2018-May-20 07:30N 50°49' W 001°06'0 0.0
2018-May-20 07:00N 50°49' W 001°06'0 0.0
2018-May-20 06:30N 50°49' W 001°06'2 4.2
2018-May-20 06:00N 50°47' W 001°06'713.0
2018-May-20 05:30N 50°40' W 001°04'4114.8
2018-May-20 02:42N 50°06' W 001°40'516.9
2018-May-20 02:24N 50°01' W 001°44'717.4
2018-May-20 02:00N 49°56' W 001°51'817.0
2018-May-20 01:31N 49°49' W 001°59'917.4
2018-May-20 01:00N 49°41' W 002°05'2317.6
2018-May-19 23:43N 49°20' W 002°18'616.3
2018-May-19 23:22N 49°15' W 002°21'715.4
2018-May-19 22:57N 49°10' W 002°15'6 2.8
2018-May-19 20:59N 49°11' W 002°07'3 5.6
2018-May-19 20:23N 49°07' W 002°06'4 2.4
2018-May-19 18:34N 49°06' W 002°13'312.3
2018-May-19 18:21N 49°03' W 002°14'6 3.2
2018-May-19 16:28N 49°00' W 002°22'22 9.6
2018-May-19 14:09N 48°40' W 002°05'2 0.6
2018-May-19 11:12N 48°39' W 002°03'3114.6
2018-May-19 09:06N 49°10' W 002°07'1 0.3
2018-May-19 07:14N 49°10' W 002°07'616.8
2018-May-19 06:54N 49°10' W 002°16'1518.4
2018-May-19 06:06N 49°23' W 002°27'218.4
2018-May-19 06:00N 49°24' W 002°28'4 5.3
2018-May-19 05:18N 49°27' W 002°32'0 0.0
2018-May-19 05:00N 49°27' W 002°32'0 0.0
2018-May-19 04:29N 49°27' W 002°32'1 1.9
2018-May-19 04:00N 49°28' W 002°30'3 6.3
2018-May-19 03:30N 49°26' W 002°26'28 9.5
2018-May-19 00:35N 49°48' W 001°59'111.0
2018-May-19 00:30N 49°49' W 001°59'611.1
2018-May-19 00:00N 49°54' W 001°54'510.4
2018-May-18 23:31N 49°58' W 001°49'510.5
2018-May-18 23:01N 50°02' W 001°44'612.4
2018-May-18 22:30N 50°06' W 001°37'612.9
2018-May-18 22:01N 50°11' W 001°31'612.8
2018-May-18 21:30N 50°16' W 001°25'2613.6
2018-May-18 19:34N 50°38' W 001°01'216.1
2018-May-18 19:28N 50°39' W 000°60'613.3
2018-May-18 19:00N 50°44' W 001°05'4 8.7
2018-May-18 18:31N 50°49' W 001°06'0 0.2
2018-May-18 18:00N 50°49' W 001°06'0 0.0
2018-May-18 17:30N 50°49' W 001°06'0 0.0
2018-May-18 17:00N 50°49' W 001°06'0 0.0
2018-May-18 16:30N 50°49' W 001°06'0 0.0
2018-May-18 16:00N 50°49' W 001°06'2 3.0
2018-May-18 15:31N 50°47' W 001°07'714.0
2018-May-18 15:00N 50°41' W 001°03'815.2
2018-May-18 14:30N 50°34' W 001°10'3616.9
2018-May-18 12:21N 50°04' W 001°41'718.6
2018-May-18 11:58N 49°58' W 001°47'919.1
2018-May-18 11:30N 49°50' W 001°55'2820.0
2018-May-18 10:07N 49°25' W 002°13'320.0
2018-May-18 09:59N 49°23' W 002°16'1019.1
2018-May-18 09:27N 49°13' W 002°20'817.1
2018-May-18 09:00N 49°10' W 002°09'2 0.7
2018-May-18 06:56N 49°11' W 002°07'612.4
2018-May-18 06:29N 49°10' W 002°15'918.1
2018-May-18 06:00N 49°17' W 002°23'918.2
2018-May-18 05:30N 49°25' W 002°29'3 5.6
2018-May-18 05:00N 49°27' W 002°32'0 0.0
2018-May-18 04:30N 49°27' W 002°32'0 0.0
2018-May-18 03:54N 49°27' W 002°32'2 6.0
2018-May-18 03:31N 49°26' W 002°29'815.3
2018-May-18 03:00N 49°30' W 002°19'714.1
2018-May-18 02:30N 49°34' W 002°10'612.6
2018-May-18 01:59N 49°39' W 002°05'713.8
2018-May-18 01:27N 49°47' W 002°03'613.3
2018-May-18 01:00N 49°51' W 001°57'713.5
2018-May-18 00:30N 49°57' W 001°51'713.2
2018-May-18 00:00N 50°02' W 001°45'612.5
2018-May-17 23:30N 50°07' W 001°38'712.2
2018-May-17 22:55N 50°12' W 001°31'3012.7
2018-May-17 20:34N 50°36' W 001°04'212.6
2018-May-17 20:24N 50°38' W 001°02'512.0
2018-May-17 20:00N 50°43' W 001°01'612.0
2018-May-17 19:30N 50°48' W 001°07'1 2.2
2018-May-17 19:00N 50°49' W 001°06'0 0.0
2018-May-17 18:30N 50°49' W 001°06'0 0.0
2018-May-17 18:00N 50°49' W 001°06'0 0.0
2018-May-17 17:30N 50°49' W 001°06'0 0.0
2018-May-17 17:00N 50°49' W 001°06'0 0.0
2018-May-17 16:30N 50°49' W 001°06'0 0.0
2018-May-17 16:00N 50°49' W 001°06'2 3.7
2018-May-17 15:30N 50°47' W 001°06'713.6
2018-May-17 15:00N 50°40' W 001°04'814.8
2018-May-17 14:29N 50°34' W 001°10'3316.0
2018-May-17 12:24N 50°06' W 001°39'717.5
2018-May-17 12:00N 50°00' W 001°45'917.9
2018-May-17 11:31N 49°53' W 001°53'1418.6
2018-May-17 10:47N 49°42' W 002°04'2619.3
2018-May-17 09:25N 49°17' W 002°20'916.0
2018-May-17 08:52N 49°10' W 002°13'4 1.3
2018-May-17 05:51N 49°10' W 002°07'718.8
2018-May-17 05:29N 49°10' W 002°18'1118.9
2018-May-17 04:53N 49°21' W 002°26'717.9
2018-May-17 04:30N 49°27' W 002°30'1 2.5
2018-May-17 04:00N 49°27' W 002°32'0 0.0
2018-May-17 03:30N 49°27' W 002°32'0 0.0
2018-May-17 03:00N 49°27' W 002°32'2 4.8
2018-May-17 02:30N 49°26' W 002°29'714.6
2018-May-17 02:00N 49°29' W 002°19'1418.2
2018-May-17 01:16N 49°40' W 002°07'414.7
2018-May-17 01:00N 49°44' W 002°05'714.9
2018-May-17 00:30N 49°49' W 001°57'714.0
2018-May-17 00:00N 49°54' W 001°49'613.0
2018-May-16 23:30N 49°58' W 001°42'713.4
2018-May-16 23:00N 50°05' W 001°38'612.9
2018-May-16 22:31N 50°10' W 001°35'3612.1
2018-May-16 19:32N 50°39' W 001°01'014.1
2018-May-16 19:30N 50°40' W 001°01'714.9
2018-May-16 19:00N 50°46' W 001°06'2 4.6
2018-May-16 18:30N 50°49' W 001°06'0 0.0
2018-May-16 18:00N 50°49' W 001°06'0 0.0
2018-May-16 17:30N 50°49' W 001°06'0 0.0
2018-May-16 17:00N 50°49' W 001°06'0 0.0
2018-May-16 16:30N 50°49' W 001°06'0 0.0
2018-May-16 16:00N 50°49' W 001°06'0 0.0
2018-May-16 15:30N 50°49' W 001°06'2 3.6
2018-May-16 15:00N 50°47' W 001°06'713.2
2018-May-16 14:31N 50°41' W 001°03'3114.5
2018-May-16 12:22N 50°14' W 001°27'614.9
2018-May-16 12:00N 50°09' W 001°33'815.5
2018-May-16 11:30N 50°04' W 001°41'816.1
2018-May-16 11:00N 49°57' W 001°48'815.4
2018-May-16 10:30N 49°51' W 001°55'2815.9
2018-May-16 08:45N 49°26' W 002°14'616.5
2018-May-16 08:24N 49°21' W 002°19'14 3.7
2018-May-16 04:45N 49°10' W 002°08'619.5
2018-May-16 04:27N 49°10' W 002°17'1018.9
2018-May-16 03:54N 49°19' W 002°26'818.3
2018-May-16 03:30N 49°26' W 002°29'2 4.6
2018-May-16 03:00N 49°27' W 002°32'0 0.0
2018-May-16 02:28N 49°27' W 002°32'0 0.3
2018-May-16 02:00N 49°27' W 002°32'4 7.2
2018-May-16 01:30N 49°26' W 002°26'917.3
2018-May-16 01:00N 49°31' W 002°16'1618.2
2018-May-16 00:06N 49°46' W 002°03'218.0
2018-May-15 23:58N 49°47' W 002°01'816.9
2018-May-15 23:30N 49°54' W 001°54'815.7
2018-May-15 23:00N 49°60' W 001°46'714.3
2018-May-15 22:30N 50°06' W 001°40'713.8
2018-May-15 22:00N 50°11' W 001°33'714.2
2018-May-15 21:30N 50°17' W 001°27'2615.1
2018-May-15 19:45N 50°38' W 001°02'415.0
2018-May-15 19:30N 50°42' W 001°01'612.6
2018-May-15 19:00N 50°47' W 001°06'2 3.4
2018-May-15 18:30N 50°49' W 001°06'0 0.0
2018-May-15 18:00N 50°49' W 001°06'0 0.0
2018-May-15 17:30N 50°49' W 001°06'0 0.0
2018-May-15 17:01N 50°49' W 001°06'0 0.0
2018-May-15 16:30N 50°49' W 001°06'0 0.0
2018-May-15 16:00N 50°49' W 001°06'0 0.0
2018-May-15 15:30N 50°49' W 001°06'2 4.0
2018-May-15 15:00N 50°47' W 001°06'612.8
2018-May-15 14:30N 50°41' W 001°03'713.5
2018-May-15 14:01N 50°35' W 001°09'1513.8
2018-May-15 12:55N 50°23' W 001°22'914.5
2018-May-15 12:19N 50°16' W 001°32'515.5
2018-May-15 12:00N 50°12' W 001°36'816.6
2018-May-15 11:30N 50°05' W 001°43'917.0
2018-May-15 10:59N 49°58' W 001°50'815.6
2018-May-15 10:30N 49°51' W 001°56'714.5
2018-May-15 10:00N 49°45' W 002°02'714.5
2018-May-15 09:30N 49°38' W 002°07'815.2
2018-May-15 09:00N 49°31' W 002°11'916.4
2018-May-15 08:25N 49°22' W 002°17'716.2
2018-May-15 08:00N 49°16' W 002°21'1116.2
2018-May-15 07:21N 49°10' W 002°08'1 0.4
2018-May-15 04:55N 49°11' W 002°07'614.0
2018-May-15 04:30N 49°10' W 002°16'812.9
2018-May-15 03:50N 49°16' W 002°24'615.2
2018-May-15 03:27N 49°22' W 002°27'613.5
2018-May-15 03:00N 49°27' W 002°32'0 0.0
2018-May-15 02:31N 49°27' W 002°32'0 0.0
2018-May-15 02:00N 49°27' W 002°32'4 7.8
2018-May-15 01:29N 49°26' W 002°26'915.7
2018-May-15 00:54N 49°32' W 002°14'1517.5
2018-May-15 00:03N 49°45' W 002°04'318.7
2018-May-14 23:53N 49°48' W 002°02'717.6
2018-May-14 23:30N 49°53' W 001°56'816.0
2018-May-14 23:00N 49°60' W 001°48'714.7
2018-May-14 22:30N 50°05' W 001°41'713.9
2018-May-14 22:00N 50°11' W 001°34'713.3
2018-May-14 21:30N 50°16' W 001°28'613.0
2018-May-14 21:01N 50°21' W 001°22'714.0
2018-May-14 20:29N 50°28' W 001°17'714.5
2018-May-14 20:00N 50°34' W 001°11'714.9
2018-May-14 19:30N 50°40' W 001°04'714.1
2018-May-14 19:00N 50°47' W 001°06'2 4.0
2018-May-14 18:30N 50°49' W 001°07'1 1.3
2018-May-14 18:00N 50°49' W 001°06'0 0.0
2018-May-14 17:30N 50°49' W 001°06'0 0.0
2018-May-14 17:00N 50°49' W 001°06'0 0.0
2018-May-14 16:30N 50°49' W 001°06'0 0.0
2018-May-14 16:00N 50°49' W 001°06'0 0.0
2018-May-14 15:30N 50°49' W 001°06'2 3.4
2018-May-14 15:00N 50°47' W 001°06'713.5
2018-May-14 14:31N 50°41' W 001°01'714.3
2018-May-14 14:00N 50°35' W 001°06'2513.9
2018-May-14 12:13N 50°15' W 001°28'314.3
2018-May-14 12:00N 50°12' W 001°31'714.2
2018-May-14 11:31N 50°07' W 001°38'714.6
2018-May-14 11:00N 50°01' W 001°45'714.6
2018-May-14 10:31N 49°55' W 001°52'714.8
2018-May-14 10:00N 49°49' W 001°58'2916.4
2018-May-14 08:16N 49°23' W 002°16'1316.5
2018-May-14 07:30N 49°10' W 002°18'7 2.8
2018-May-14 04:59N 49°11' W 002°07'714.0
2018-May-14 04:29N 49°10' W 002°18'1317.9
2018-May-14 03:45N 49°22' W 002°27'417.5
2018-May-14 03:30N 49°26' W 002°30'2 4.3
2018-May-14 03:00N 49°27' W 002°32'0 0.0
2018-May-14 02:30N 49°27' W 002°32'0 0.0
2018-May-14 01:59N 49°27' W 002°32'4 8.4
2018-May-14 01:30N 49°26' W 002°26'714.1
2018-May-14 01:00N 49°30' W 002°17'611.4
2018-May-14 00:29N 49°34' W 002°10'611.2
2018-May-13 23:59N 49°39' W 002°06'914.1
2018-May-13 23:23N 49°47' W 002°01'6513.4
2018-May-13 18:33N 50°40' W 001°04'113.4
2018-May-13 18:30N 50°41' W 001°03'612.3
2018-May-13 18:00N 50°47' W 001°06'2 3.9
2018-May-13 17:30N 50°49' W 001°06'0 0.0
2018-May-13 17:00N 50°49' W 001°06'0 0.0
2018-May-13 16:30N 50°49' W 001°06'0 0.0
2018-May-13 16:00N 50°49' W 001°06'0 0.0
2018-May-13 15:30N 50°49' W 001°06'0 0.0
2018-May-13 15:00N 50°49' W 001°06'0 0.0
2018-May-13 14:30N 50°49' W 001°06'0 0.0
2018-May-13 14:00N 50°49' W 001°06'0 0.0
2018-May-13 13:30N 50°49' W 001°06'0 0.0
2018-May-13 13:00N 50°49' W 001°06'0 0.0
2018-May-13 12:30N 50°49' W 001°06'0 0.0
2018-May-13 12:00N 50°49' W 001°06'0 0.0
2018-May-13 11:30N 50°49' W 001°06'0 0.0
2018-May-13 11:00N 50°49' W 001°06'0 0.0
2018-May-13 10:30N 50°49' W 001°06'0 0.0
2018-May-13 10:00N 50°49' W 001°06'0 0.0
2018-May-13 09:30N 50°49' W 001°06'0 0.0
2018-May-13 09:00N 50°49' W 001°06'0 0.0
2018-May-13 08:30N 50°49' W 001°06'0 0.0
2018-May-13 08:00N 50°49' W 001°06'0 0.0
2018-May-13 07:30N 50°49' W 001°06'0 0.0
2018-May-13 07:00N 50°49' W 001°06'2 4.0
2018-May-13 06:30N 50°47' W 001°06'713.7
2018-May-13 06:00N 50°40' W 001°04'713.0
2018-May-13 05:30N 50°34' W 001°08'7014.9
2018-May-13 00:48N 49°35' W 002°08'616.2
2018-May-13 00:24N 49°31' W 002°15'616.4
2018-May-13 00:00N 49°27' W 002°24'510.3
2018-May-12 23:30N 49°27' W 002°32'  

Dump ship's entire track history